createdAt,value
2022-10-28T00:01:06.295Z,65.83
2022-10-28T00:03:33.836Z,65.12
2022-10-28T00:06:09.712Z,65.34
2022-10-28T00:08:37.273Z,65.27
2022-10-28T00:11:09.539Z,65.34
2022-10-28T00:13:37.125Z,65.35
2022-10-28T00:16:12.487Z,66.16
2022-10-28T00:18:40.033Z,65.65
2022-10-28T00:21:16.274Z,65.78
2022-10-28T00:23:44.035Z,65.28
2022-10-28T00:26:26.962Z,65.03
2022-10-28T00:29:02.432Z,64.67
2022-10-28T00:31:30.615Z,65.05
2022-10-28T00:33:59.950Z,65.39
2022-10-28T00:36:29.563Z,64.53
2022-10-28T00:38:57.534Z,64.85
2022-10-28T00:41:27.862Z,64.47
2022-10-28T00:43:58.020Z,64.33
2022-10-28T00:46:41.810Z,65.70
2022-10-28T00:49:29.842Z,65.20
2022-10-28T00:52:06.621Z,64.57
2022-10-28T00:54:35.376Z,65.05
2022-10-28T00:57:05.984Z,66.31
2022-10-28T00:59:37.160Z,67.83
2022-10-28T01:02:05.492Z,67.98
2022-10-28T01:04:33.289Z,67.84
2022-10-28T01:07:02.172Z,68.35
2022-10-28T01:09:29.656Z,69.33
2022-10-28T01:12:27.947Z,70.98
2022-10-28T01:15:20.574Z,70.20
2022-10-28T01:17:57.788Z,69.98
2022-10-28T01:20:27.698Z,70.59
2022-10-28T01:23:22.456Z,71.21
2022-10-28T01:26:23.920Z,71.44
2022-10-28T01:29:19.536Z,71.90
2022-10-28T01:32:08.624Z,71.58
2022-10-28T01:34:54.035Z,70.65
2022-10-28T01:37:44.590Z,71.30
2022-10-28T01:40:21.299Z,71.03
2022-10-28T01:42:54.799Z,71.59
2022-10-28T01:45:31.408Z,71.65
2022-10-28T01:48:04.248Z,72.60
2022-10-28T01:51:08.980Z,73.44
2022-10-28T01:53:41.852Z,72.54
2022-10-28T01:56:16.660Z,74.29
2022-10-28T01:58:44.788Z,73.71
2022-10-28T02:01:12.385Z,73.76
2022-10-28T02:03:39.674Z,74.50
2022-10-28T02:06:14.495Z,74.31
2022-10-28T02:09:08.384Z,75.74
2022-10-28T02:11:41.199Z,76.30
2022-10-28T02:14:14.353Z,75.19
2022-10-28T02:16:50.584Z,75.23
2022-10-28T02:19:47.363Z,75.64
2022-10-28T02:22:23.508Z,75.32
2022-10-28T02:24:54.894Z,75.27
2022-10-28T02:27:38.184Z,75.99
2022-10-28T02:30:09.651Z,76.02
2022-10-28T02:32:44.633Z,75.56
2022-10-28T02:35:20.857Z,75.81
2022-10-28T02:37:50.647Z,75.73
2022-10-28T02:40:25.343Z,75.91
2022-10-28T02:43:00.079Z,75.72
2022-10-28T02:45:35.807Z,75.08
2022-10-28T02:48:08.403Z,75.12
2022-10-28T02:50:39.829Z,75.01
2022-10-28T02:53:35.485Z,74.95
2022-10-28T02:56:06.944Z,75.17
2022-10-28T02:58:41.165Z,74.81
2022-10-28T03:01:08.422Z,75.30
2022-10-28T03:03:35.516Z,76.14
2022-10-28T03:06:02.520Z,75.77
2022-10-28T03:08:29.477Z,75.84
2022-10-28T03:10:56.433Z,77.17
2022-10-28T03:13:23.577Z,76.92
2022-10-28T03:15:50.555Z,76.15
2022-10-28T03:18:17.473Z,76.41
2022-10-28T03:20:44.359Z,75.77
2022-10-28T03:23:12.194Z,76.28
2022-10-28T03:25:39.526Z,76.32
2022-10-28T03:28:06.706Z,77.28
2022-10-28T03:30:33.594Z,77.54
2022-10-28T03:33:01.232Z,77.40
2022-10-28T03:35:28.211Z,77.24
2022-10-28T03:37:55.666Z,78.30
2022-10-28T03:40:22.944Z,78.22
2022-10-28T03:42:50.123Z,78.54
2022-10-28T03:45:17.282Z,78.57
2022-10-28T03:47:45.414Z,77.58
2022-10-28T03:50:12.389Z,77.74
2022-10-28T03:52:39.736Z,77.22
2022-10-28T03:55:08.805Z,77.75
2022-10-28T03:57:36.134Z,77.62
2022-10-28T04:00:05.212Z,77.74
2022-10-28T04:02:38.875Z,77.96
2022-10-28T04:05:06.438Z,78.39
2022-10-28T04:07:33.586Z,78.19
2022-10-28T04:10:01.178Z,77.87
2022-10-28T04:12:28.373Z,77.38
2022-10-28T04:14:55.610Z,77.56
2022-10-28T04:17:22.692Z,77.65
2022-10-28T04:19:49.980Z,77.92
2022-10-28T04:22:16.887Z,78.52
2022-10-28T04:24:43.797Z,78.90
2022-10-28T04:27:10.711Z,80.12
2022-10-28T04:29:37.623Z,79.91
2022-10-28T04:32:04.700Z,79.10
2022-10-28T04:34:32.083Z,78.92
2022-10-28T04:36:59.641Z,79.00
2022-10-28T04:39:26.754Z,79.70
2022-10-28T04:41:54.634Z,79.97
2022-10-28T04:44:21.529Z,78.68
2022-10-28T04:46:49.071Z,79.18
2022-10-28T04:49:16.412Z,79.16
2022-10-28T04:51:43.651Z,78.99
2022-10-28T04:54:10.712Z,78.62
2022-10-28T04:56:37.677Z,79.13
2022-10-28T04:59:04.725Z,80.13
2022-10-28T05:01:31.825Z,80.12
2022-10-28T05:03:59.752Z,80.16
2022-10-28T05:06:26.613Z,80.43
2022-10-28T05:08:53.866Z,80.63
2022-10-28T05:11:21.253Z,80.36
2022-10-28T05:13:48.507Z,81.30
2022-10-28T05:16:15.471Z,80.08
2022-10-28T05:21:15.500Z,80.18
2022-10-28T05:23:44.377Z,80.91
2022-10-28T05:26:11.783Z,81.08
2022-10-28T05:28:38.671Z,81.23
2022-10-28T05:31:06.258Z,80.29
2022-10-28T05:33:36.007Z,79.43
2022-10-28T05:36:03.257Z,78.97
2022-10-28T05:38:30.505Z,78.67
2022-10-28T05:40:57.757Z,78.17
2022-10-28T05:43:24.645Z,78.21
2022-10-28T05:45:56.601Z,77.81
2022-10-28T05:48:24.418Z,77.40
2022-10-28T05:50:51.383Z,77.04
2022-10-28T05:53:18.813Z,76.85
2022-10-28T05:55:47.774Z,76.56
2022-10-28T05:58:15.863Z,75.99
2022-10-28T06:00:43.295Z,75.59
2022-10-28T06:03:12.274Z,75.66
2022-10-28T06:05:43.860Z,75.92
2022-10-28T06:08:12.934Z,75.51
2022-10-28T06:10:40.714Z,75.31
2022-10-28T06:13:07.853Z,75.08
2022-10-28T06:15:34.819Z,75.04
2022-10-28T06:18:02.286Z,75.29
2022-10-28T06:20:29.443Z,74.85
2022-10-28T06:22:56.623Z,75.27
2022-10-28T06:25:25.034Z,74.91
2022-10-28T06:27:54.833Z,74.97
2022-10-28T06:30:23.685Z,74.52
2022-10-28T06:32:50.548Z,74.62
2022-10-28T06:35:18.904Z,74.21
2022-10-28T06:37:45.829Z,73.54
2022-10-28T06:40:13.104Z,73.76
2022-10-28T06:42:40.709Z,73.82
2022-10-28T06:45:08.308Z,73.33
2022-10-28T06:47:40.577Z,73.16
2022-10-28T06:50:09.390Z,72.63
2022-10-28T06:52:36.590Z,72.21
2022-10-28T06:55:04.107Z,71.78
2022-10-28T06:57:32.156Z,71.56
2022-10-28T06:59:59.721Z,70.76
2022-10-28T07:02:26.928Z,70.74
2022-10-28T07:04:54.636Z,70.41
2022-10-28T07:07:21.580Z,70.29
2022-10-28T07:09:49.265Z,69.60
2022-10-28T07:12:19.829Z,69.30
2022-10-28T07:14:46.986Z,69.06
2022-10-28T07:17:13.868Z,68.36
2022-10-28T07:19:41.942Z,68.41
2022-10-28T07:22:08.863Z,67.74
2022-10-28T07:24:35.944Z,67.83
2022-10-28T07:27:02.934Z,68.09
2022-10-28T07:29:29.886Z,67.94
2022-10-28T07:31:57.566Z,67.50
2022-10-28T07:34:27.147Z,66.79
2022-10-28T07:36:55.746Z,66.24
2022-10-28T07:39:23.092Z,65.86
2022-10-28T07:41:50.172Z,65.52
2022-10-28T07:44:17.309Z,65.98
2022-10-28T07:46:44.359Z,64.89
2022-10-28T07:49:11.272Z,64.58
2022-10-28T07:51:38.204Z,64.26
2022-10-28T07:54:05.250Z,63.66
2022-10-28T07:56:32.275Z,62.74
2022-10-28T07:59:00.752Z,63.45
2022-10-28T08:01:27.840Z,63.06
2022-10-28T08:03:54.960Z,62.65
2022-10-28T08:06:22.338Z,62.56
2022-10-28T08:08:54.768Z,62.29
2022-10-28T08:11:23.839Z,62.74
2022-10-28T08:13:55.364Z,62.21
2022-10-28T08:16:22.829Z,62.82
2022-10-28T08:18:49.882Z,62.82
2022-10-28T08:21:17.242Z,61.92
2022-10-28T08:23:46.748Z,62.05
2022-10-28T08:26:16.144Z,61.40
2022-10-28T08:28:43.423Z,60.37
2022-10-28T08:31:12.580Z,60.23
2022-10-28T08:33:42.714Z,60.12
2022-10-28T08:36:12.189Z,60.05
2022-10-28T08:38:44.301Z,59.83
2022-10-28T08:41:30.189Z,59.20
2022-10-28T08:44:17.501Z,58.83
2022-10-28T08:47:03.088Z,59.40
2022-10-28T08:49:33.610Z,58.16
2022-10-28T08:52:14.139Z,58.04
2022-10-28T08:54:50.629Z,56.94
2022-10-28T08:57:26.040Z,57.05
2022-10-28T08:59:55.046Z,56.25
2022-10-28T09:02:25.349Z,56.42
2022-10-28T09:05:06.584Z,55.19
2022-10-28T09:07:37.306Z,55.80
2022-10-28T09:10:06.000Z,56.25
2022-10-28T09:12:49.353Z,55.78
2022-10-28T09:15:38.272Z,55.14
2022-10-28T09:18:06.028Z,54.08
2022-10-28T09:20:54.750Z,53.04
2022-10-28T09:23:45.658Z,53.79
2022-10-28T09:26:42.596Z,53.20
2022-10-28T09:29:19.006Z,53.12
2022-10-28T09:31:50.331Z,53.27
2022-10-28T09:34:29.903Z,53.31
2022-10-28T09:37:20.101Z,52.53
2022-10-28T09:39:51.054Z,52.49
2022-10-28T09:42:25.602Z,51.12
2022-10-28T09:45:02.649Z,51.13
2022-10-28T09:47:38.584Z,50.58
2022-10-28T09:50:15.927Z,49.92
2022-10-28T09:53:21.815Z,49.57
2022-10-28T09:55:51.572Z,50.17
2022-10-28T09:58:19.295Z,50.09
2022-10-28T10:00:46.771Z,49.70
2022-10-28T10:03:17.263Z,49.33
2022-10-28T10:05:49.878Z,48.39
2022-10-28T10:08:20.195Z,48.77
2022-10-28T10:11:00.940Z,48.04
2022-10-28T10:13:33.254Z,47.62
2022-10-28T10:16:05.958Z,48.14
2022-10-28T10:18:34.324Z,48.65
2022-10-28T10:21:01.683Z,48.47
2022-10-28T10:23:46.515Z,48.17
2022-10-28T10:26:16.353Z,47.64
2022-10-28T10:28:49.576Z,46.40
2022-10-28T10:31:20.411Z,45.92
2022-10-28T10:33:58.903Z,45.22
2022-10-28T10:36:29.112Z,45.03
2022-10-28T10:38:56.897Z,43.92
2022-10-28T10:41:36.015Z,43.56
2022-10-28T10:44:22.888Z,42.71
2022-10-28T10:47:06.502Z,41.88
2022-10-28T10:49:37.201Z,42.89
2022-10-28T10:52:17.585Z,42.19
2022-10-28T10:55:00.055Z,42.67
2022-10-28T10:57:27.814Z,43.04
2022-10-28T10:59:56.752Z,42.54
2022-10-28T11:02:37.185Z,41.10
2022-10-28T11:05:07.772Z,41.09
2022-10-28T11:07:36.614Z,41.23
2022-10-28T11:10:05.509Z,40.59
2022-10-28T11:12:39.047Z,39.96
2022-10-28T11:15:09.502Z,39.45
2022-10-28T11:17:36.408Z,39.91
2022-10-28T11:20:44.413Z,38.34
2022-10-28T11:23:18.276Z,38.45
2022-10-28T11:25:50.810Z,38.17
2022-10-28T11:28:39.276Z,38.31
2022-10-28T11:31:25.051Z,37.59
2022-10-28T11:34:24.191Z,36.97
2022-10-28T11:37:39.336Z,37.28
2022-10-28T11:40:18.247Z,36.98
2022-10-28T11:43:25.721Z,36.49
2022-10-28T11:46:17.399Z,37.14
2022-10-28T11:48:52.814Z,35.24
2022-10-28T11:51:41.311Z,34.50
2022-10-28T11:54:29.615Z,35.06
2022-10-28T11:57:07.546Z,34.65
2022-10-28T11:59:52.910Z,35.15
2022-10-28T12:02:52.324Z,33.67
2022-10-28T12:05:34.327Z,33.86
2022-10-28T12:08:26.779Z,34.07
2022-10-28T12:11:39.558Z,32.54
2022-10-28T12:14:41.460Z,36.49
2022-10-28T12:17:17.524Z,35.36
2022-10-28T12:20:14.612Z,31.00
2022-10-28T12:22:54.908Z,31.28
2022-10-28T12:25:26.710Z,35.97
2022-10-28T12:28:03.195Z,33.06
2022-10-28T12:30:40.415Z,35.76
2022-10-28T12:33:15.752Z,32.52
2022-10-28T12:35:51.511Z,31.54
2022-10-28T12:38:42.103Z,34.28
2022-10-28T12:44:20.276Z,29.82
2022-10-28T12:47:14.948Z,32.06
2022-10-28T12:50:08.955Z,31.01
2022-10-28T12:52:44.393Z,32.54
2022-10-28T12:55:17.894Z,29.74
2022-10-28T12:57:49.873Z,29.75
2022-10-28T13:00:23.488Z,29.55
2022-10-28T13:03:05.508Z,31.19
2022-10-28T13:05:46.711Z,36.05
2022-10-28T13:08:46.196Z,35.47
2022-10-28T13:11:15.990Z,32.13
2022-10-28T13:13:45.677Z,33.49
2022-10-28T13:16:24.401Z,31.02
2022-10-28T13:19:00.013Z,30.24
2022-10-28T13:21:59.041Z,28.68
2022-10-28T13:24:42.928Z,32.67
2022-10-28T13:27:13.743Z,32.98
2022-10-28T13:29:43.538Z,35.84
2022-10-28T13:32:35.757Z,34.26
2022-10-28T13:35:23.175Z,28.92
2022-10-28T13:37:53.063Z,30.08
2022-10-28T13:40:32.282Z,27.88
2022-10-28T13:43:01.090Z,28.99
2022-10-28T13:45:48.695Z,24.01
2022-10-28T13:48:41.589Z,24.81
2022-10-28T13:51:11.706Z,30.01
2022-10-28T13:53:45.994Z,30.66
2022-10-28T13:56:30.534Z,24.07
2022-10-28T13:59:02.571Z,26.72
2022-10-28T14:01:38.876Z,29.61
2022-10-28T14:04:19.729Z,30.91
2022-10-28T14:06:48.175Z,31.34
2022-10-28T14:09:29.448Z,28.25
2022-10-28T14:12:17.968Z,23.70
2022-10-28T14:14:58.470Z,31.29
2022-10-28T14:17:36.122Z,29.35
2022-10-28T14:20:06.273Z,30.57
2022-10-28T14:22:37.020Z,31.12
2022-10-28T14:25:41.937Z,26.01
2022-10-28T14:28:27.421Z,26.43
2022-10-28T14:31:09.684Z,27.70
2022-10-28T14:33:42.676Z,28.32
2022-10-28T14:36:18.783Z,28.10
2022-10-28T14:39:04.322Z,28.58
2022-10-28T14:41:34.987Z,30.83
2022-10-28T14:44:17.000Z,26.74
2022-10-28T14:46:56.239Z,26.03
2022-10-28T14:49:45.569Z,29.06
2022-10-28T14:52:20.025Z,29.61
2022-10-28T14:54:51.684Z,30.67
2022-10-28T14:57:22.934Z,31.31
2022-10-28T14:59:51.803Z,29.45
2022-10-28T15:02:22.763Z,29.54
2022-10-28T15:05:03.256Z,27.54
2022-10-28T15:07:35.621Z,28.23
2022-10-28T15:10:28.791Z,27.78
2022-10-28T15:12:58.131Z,30.52
2022-10-28T15:15:29.774Z,30.48
2022-10-28T15:17:57.987Z,31.79
2022-10-28T15:20:32.513Z,30.26
2022-10-28T15:23:20.192Z,29.62
2022-10-28T15:26:05.479Z,31.54
2022-10-28T15:28:32.890Z,31.04
2022-10-28T15:30:59.811Z,32.00
2022-10-28T15:33:30.898Z,33.25
2022-10-28T15:36:17.693Z,34.51
2022-10-28T15:38:47.285Z,34.76
2022-10-28T15:41:23.841Z,35.02
2022-10-28T15:43:56.301Z,35.34
2022-10-28T15:46:24.900Z,37.12
2022-10-28T15:48:53.446Z,37.12
2022-10-28T15:51:21.702Z,37.25
2022-10-28T15:53:55.890Z,37.57
2022-10-28T15:56:27.352Z,38.34
2022-10-28T15:59:07.349Z,37.28
2022-10-28T16:01:41.189Z,37.65
2022-10-28T16:04:23.242Z,41.25
2022-10-28T16:06:55.939Z,41.32
2022-10-28T16:09:35.726Z,40.59
2022-10-28T16:12:13.080Z,41.07
2022-10-28T16:14:42.791Z,41.10
2022-10-28T16:17:19.116Z,41.28
2022-10-28T16:20:16.998Z,40.79
2022-10-28T16:22:46.023Z,41.51
2022-10-28T16:25:15.073Z,41.54
2022-10-28T16:27:42.282Z,41.82
2022-10-28T16:30:10.562Z,42.45
2022-10-28T16:32:39.302Z,43.33
2022-10-28T16:35:15.274Z,44.06
2022-10-28T16:37:45.274Z,44.25
2022-10-28T16:40:37.608Z,45.07
2022-10-28T16:43:01.805Z,45.27
2022-10-28T16:45:29.130Z,45.54
2022-10-28T16:47:56.682Z,45.66
2022-10-28T16:50:25.041Z,45.85
2022-10-28T16:52:54.425Z,46.34
2022-10-28T16:55:21.431Z,46.26
2022-10-28T16:57:48.369Z,46.56
2022-10-28T17:00:16.387Z,46.90
2022-10-28T17:02:43.360Z,46.89
2022-10-28T17:05:20.022Z,47.27
2022-10-28T17:07:47.316Z,47.38
2022-10-28T17:10:15.243Z,47.27
2022-10-28T17:12:42.785Z,48.01
2022-10-28T17:15:10.816Z,48.17
2022-10-28T17:17:38.255Z,48.12
2022-10-28T17:20:06.074Z,47.83
2022-10-28T17:22:33.703Z,48.19
2022-10-28T17:25:00.679Z,47.89
2022-10-28T17:27:28.085Z,47.72
2022-10-28T17:29:55.352Z,47.94
2022-10-28T17:32:22.374Z,48.17
2022-10-28T17:34:50.155Z,47.69
2022-10-28T17:37:17.170Z,47.97
2022-10-28T17:39:44.878Z,48.08
2022-10-28T17:42:13.691Z,48.31
2022-10-28T17:44:44.151Z,48.45
2022-10-28T17:47:12.394Z,48.54
2022-10-28T17:49:39.396Z,48.33
2022-10-28T17:52:06.421Z,48.68
2022-10-28T17:54:34.073Z,48.38
2022-10-28T17:57:00.993Z,49.01
2022-10-28T17:59:28.416Z,48.98
2022-10-28T18:01:55.556Z,49.61
2022-10-28T18:04:26.421Z,49.71
2022-10-28T18:06:55.331Z,50.44
2022-10-28T18:09:23.055Z,50.46
2022-10-28T18:11:50.650Z,50.24
2022-10-28T18:14:18.011Z,50.19
2022-10-28T18:16:46.112Z,50.07
2022-10-28T18:19:13.881Z,50.38
2022-10-28T18:21:41.140Z,50.31
2022-10-28T18:24:08.559Z,50.66
2022-10-28T18:26:37.441Z,51.03
2022-10-28T18:29:06.395Z,51.48
2022-10-28T18:31:34.179Z,51.54
2022-10-28T18:34:02.794Z,52.19
2022-10-28T18:36:34.560Z,52.05
2022-10-28T18:39:04.524Z,52.71
2022-10-28T18:41:34.703Z,53.08
2022-10-28T18:44:09.891Z,54.00
2022-10-28T18:46:37.861Z,54.30
2022-10-28T18:49:05.612Z,55.31
2022-10-28T18:51:35.608Z,55.47
2022-10-28T18:54:02.680Z,55.39
2022-10-28T18:56:30.518Z,56.05
2022-10-28T18:58:58.679Z,55.99
2022-10-28T19:01:28.025Z,56.41
2022-10-28T19:04:00.370Z,56.69
2022-10-28T19:06:32.904Z,56.68
2022-10-28T19:09:02.397Z,56.62
2022-10-28T19:11:31.395Z,57.17
2022-10-28T19:14:06.447Z,57.64
2022-10-28T19:16:34.553Z,57.86
2022-10-28T19:19:03.169Z,59.73
2022-10-28T19:21:30.834Z,58.12
2022-10-28T19:23:57.781Z,57.71
2022-10-28T19:26:25.135Z,57.59
2022-10-28T19:28:52.362Z,57.63
2022-10-28T19:31:22.202Z,57.43
2022-10-28T19:33:49.322Z,57.49
2022-10-28T19:36:21.478Z,57.41
2022-10-28T19:38:50.033Z,57.88
2022-10-28T19:41:20.146Z,57.96
2022-10-28T19:43:47.706Z,57.89
2022-10-28T19:46:19.970Z,57.89
2022-10-28T19:48:49.384Z,58.02
2022-10-28T19:51:19.868Z,57.98
2022-10-28T19:53:51.616Z,57.71
2022-10-28T19:56:20.101Z,57.76
2022-10-28T19:58:49.711Z,57.87
2022-10-28T20:01:17.953Z,57.78
2022-10-28T20:03:49.217Z,57.93
2022-10-28T20:06:18.055Z,57.84
2022-10-28T20:08:47.166Z,57.98
2022-10-28T20:11:18.914Z,58.74
2022-10-28T20:13:56.303Z,58.88
2022-10-28T20:16:25.007Z,59.59
2022-10-28T20:18:53.195Z,59.66
2022-10-28T20:21:22.519Z,59.84
2022-10-28T20:23:53.747Z,60.25
2022-10-28T20:26:28.766Z,60.05
2022-10-28T20:28:57.114Z,60.75
2022-10-28T20:31:26.689Z,61.50
2022-10-28T20:34:00.895Z,61.27
2022-10-28T20:36:32.529Z,62.11
2022-10-28T20:39:03.142Z,62.34
2022-10-28T20:41:32.645Z,62.16
2022-10-28T20:44:00.344Z,62.13
2022-10-28T20:46:27.800Z,62.08
2022-10-28T20:48:56.542Z,61.85
2022-10-28T20:51:26.341Z,61.98
2022-10-28T20:53:53.562Z,62.08
2022-10-28T20:56:24.119Z,62.53
2022-10-28T20:58:52.495Z,62.31
2022-10-28T21:01:22.610Z,62.16
2022-10-28T21:03:53.833Z,62.40
2022-10-28T21:06:21.033Z,62.19
2022-10-28T21:08:48.401Z,62.53
2022-10-28T21:11:17.494Z,62.51
2022-10-28T21:13:49.326Z,62.39
2022-10-28T21:16:16.457Z,62.01
2022-10-28T21:18:43.447Z,62.23
2022-10-28T21:21:11.864Z,62.01
2022-10-28T21:23:39.114Z,62.06
2022-10-28T21:26:08.327Z,62.07
2022-10-28T21:28:36.367Z,62.14
2022-10-28T21:31:06.616Z,61.91
2022-10-28T21:33:36.066Z,62.02
2022-10-28T21:36:06.803Z,63.29
2022-10-28T21:38:35.131Z,63.05
2022-10-28T21:41:03.793Z,63.30
2022-10-28T21:43:34.761Z,63.41
2022-10-28T21:46:06.043Z,63.67
2022-10-28T21:48:35.645Z,64.00
2022-10-28T21:51:08.494Z,63.90
2022-10-28T21:53:39.699Z,64.60
2022-10-28T21:56:17.571Z,65.07
2022-10-28T21:58:47.873Z,64.60
2022-10-28T22:01:23.749Z,66.24
2022-10-28T22:03:54.687Z,66.52
2022-10-28T22:06:22.309Z,67.28
2022-10-28T22:08:49.237Z,67.10
2022-10-28T22:11:18.905Z,69.23
2022-10-28T22:13:46.423Z,68.46
2022-10-28T22:16:16.290Z,68.83
2022-10-28T22:18:44.654Z,68.82
2022-10-28T22:21:17.352Z,69.10
2022-10-28T22:23:44.695Z,69.25
2022-10-28T22:26:14.447Z,68.50
2022-10-28T22:28:41.666Z,68.77
2022-10-28T22:31:11.315Z,68.61
2022-10-28T22:33:38.998Z,68.56
2022-10-28T22:36:11.454Z,68.47
2022-10-28T22:38:38.971Z,68.52
2022-10-28T22:41:12.507Z,68.58
2022-10-28T22:43:40.644Z,68.75
2022-10-28T22:46:07.889Z,68.47
2022-10-28T22:48:34.913Z,68.60
2022-10-28T22:51:02.372Z,68.45
2022-10-28T22:53:29.484Z,69.17
2022-10-28T22:55:57.331Z,69.28
2022-10-28T22:58:26.436Z,68.92
2022-10-28T23:00:53.695Z,69.43
2022-10-28T23:03:20.641Z,69.36
2022-10-28T23:05:47.561Z,69.75
2022-10-28T23:08:17.069Z,70.29
2022-10-28T23:10:44.049Z,70.57
2022-10-28T23:13:12.910Z,70.44
2022-10-28T23:15:40.366Z,70.35
2022-10-28T23:18:07.296Z,70.42
2022-10-28T23:20:36.051Z,70.54
2022-10-28T23:23:03.743Z,70.69
2022-10-28T23:25:31.003Z,71.69
2022-10-28T23:27:58.205Z,71.95
2022-10-28T23:30:25.665Z,71.69
2022-10-28T23:32:52.616Z,72.59
2022-10-28T23:35:19.757Z,72.81
2022-10-28T23:37:47.267Z,73.70
2022-10-28T23:40:14.732Z,72.83
2022-10-28T23:42:41.758Z,72.94
2022-10-28T23:45:10.142Z,73.61
2022-10-28T23:47:37.033Z,73.49
2022-10-28T23:50:04.568Z,72.56
2022-10-28T23:52:32.288Z,72.98
2022-10-28T23:54:59.554Z,72.89
2022-10-28T23:57:26.521Z,72.89
2022-10-28T23:59:54.441Z,72.80
